sensor_id;sensor_type;location;lat;lon;timestamp;pressure;altitude;pressure_sealevel;temperature;humidity
64711;BME280;51139;45.626;6.850;2023-07-29T00:00:25;82261.31;;;16.21;65.75
64711;BME280;51139;45.626;6.850;2023-07-29T00:02:53;82255.84;;;16.19;65.54
64711;BME280;51139;45.626;6.850;2023-07-29T00:05:18;82245.28;;;16.09;66.38
64711;BME280;51139;45.626;6.850;2023-07-29T00:07:43;82257.94;;;16.21;66.07
64711;BME280;51139;45.626;6.850;2023-07-29T00:10:09;82251.78;;;16.06;67.05
64711;BME280;51139;45.626;6.850;2023-07-29T00:12:34;82256.31;;;16.27;65.75
64711;BME280;51139;45.626;6.850;2023-07-29T00:14:59;82249.66;;;15.93;67.24
64711;BME280;51139;45.626;6.850;2023-07-29T00:17:25;82239.34;;;16.11;67.64
64711;BME280;51139;45.626;6.850;2023-07-29T00:19:51;82237.59;;;16.03;68.21
64711;BME280;51139;45.626;6.850;2023-07-29T00:22:16;82234.94;;;16.03;68.27
64711;BME280;51139;45.626;6.850;2023-07-29T00:24:41;82242.72;;;16.11;68.41
64711;BME280;51139;45.626;6.850;2023-07-29T00:27:07;82232.13;;;16.01;68.86
64711;BME280;51139;45.626;6.850;2023-07-29T00:29:32;82234.13;;;16.25;67.50
64711;BME280;51139;45.626;6.850;2023-07-29T00:31:57;82231.81;;;16.31;66.22
64711;BME280;51139;45.626;6.850;2023-07-29T00:34:23;82224.13;;;16.61;64.56
64711;BME280;51139;45.626;6.850;2023-07-29T00:36:48;82225.63;;;16.64;64.64
64711;BME280;51139;45.626;6.850;2023-07-29T00:39:13;82229.13;;;16.78;64.34
64711;BME280;51139;45.626;6.850;2023-07-29T00:41:39;82226.75;;;16.97;63.38
64711;BME280;51139;45.626;6.850;2023-07-29T00:44:05;82229.25;;;16.81;63.54
64711;BME280;51139;45.626;6.850;2023-07-29T00:46:33;82225.91;;;16.56;64.96
64711;BME280;51139;45.626;6.850;2023-07-29T00:48:58;82233.81;;;16.54;65.71
64711;BME280;51139;45.626;6.850;2023-07-29T00:51:24;82229.03;;;16.65;65.19
64711;BME280;51139;45.626;6.850;2023-07-29T00:53:49;82237.00;;;16.88;63.28
64711;BME280;51139;45.626;6.850;2023-07-29T00:56:15;82240.88;;;16.49;65.89
64711;BME280;51139;45.626;6.850;2023-07-29T00:58:40;82238.22;;;16.38;67.23
64711;BME280;51139;45.626;6.850;2023-07-29T01:01:06;82239.50;;;16.60;65.33
64711;BME280;51139;45.626;6.850;2023-07-29T01:03:31;82237.50;;;16.37;66.19
64711;BME280;51139;45.626;6.850;2023-07-29T01:06:20;82240.31;;;16.39;66.69
64711;BME280;51139;45.626;6.850;2023-07-29T01:08:59;82236.25;;;16.50;65.21
64711;BME280;51139;45.626;6.850;2023-07-29T01:11:38;82230.19;;;16.38;66.11
64711;BME280;51139;45.626;6.850;2023-07-29T01:16:58;82232.47;;;17.03;63.17
64711;BME280;51139;45.626;6.850;2023-07-29T01:19:42;82244.47;;;17.02;64.20
64711;BME280;51139;45.626;6.850;2023-07-29T01:22:08;82241.06;;;17.13;63.27
64711;BME280;51139;45.626;6.850;2023-07-29T01:24:35;82237.22;;;17.16;63.93
64711;BME280;51139;45.626;6.850;2023-07-29T01:27:00;82232.25;;;17.11;65.61
64711;BME280;51139;45.626;6.850;2023-07-29T01:29:27;82220.81;;;17.10;67.00
64711;BME280;51139;45.626;6.850;2023-07-29T01:31:54;82204.56;;;16.94;69.02
64711;BME280;51139;45.626;6.850;2023-07-29T01:34:29;82207.16;;;16.68;69.03
64711;BME280;51139;45.626;6.850;2023-07-29T01:36:59;82203.69;;;16.30;73.91
64711;BME280;51139;45.626;6.850;2023-07-29T01:39:29;82203.72;;;16.42;73.53
64711;BME280;51139;45.626;6.850;2023-07-29T01:41:58;82200.44;;;16.55;70.79
64711;BME280;51139;45.626;6.850;2023-07-29T01:44:24;82195.56;;;16.16;73.63
64711;BME280;51139;45.626;6.850;2023-07-29T01:46:51;82196.50;;;15.97;74.15
64711;BME280;51139;45.626;6.850;2023-07-29T01:49:16;82200.31;;;16.17;73.18
64711;BME280;51139;45.626;6.850;2023-07-29T01:51:41;82216.38;;;16.53;71.10
64711;BME280;51139;45.626;6.850;2023-07-29T01:54:07;82211.81;;;16.68;68.00
64711;BME280;51139;45.626;6.850;2023-07-29T01:56:32;82211.81;;;16.80;67.82
64711;BME280;51139;45.626;6.850;2023-07-29T01:58:57;82215.38;;;16.96;66.02
64711;BME280;51139;45.626;6.850;2023-07-29T02:01:23;82213.84;;;17.05;65.72
64711;BME280;51139;45.626;6.850;2023-07-29T02:03:48;82210.50;;;17.04;64.40
64711;BME280;51139;45.626;6.850;2023-07-29T02:06:19;82204.97;;;16.65;67.94
64711;BME280;51139;45.626;6.850;2023-07-29T02:08:45;82204.25;;;16.28;70.03
64711;BME280;51139;45.626;6.850;2023-07-29T02:11:10;82193.69;;;16.30;68.96
64711;BME280;51139;45.626;6.850;2023-07-29T02:13:35;82197.16;;;16.57;67.36
64711;BME280;51139;45.626;6.850;2023-07-29T02:16:01;82212.50;;;16.80;65.55
64711;BME280;51139;45.626;6.850;2023-07-29T02:18:26;82205.38;;;16.97;64.32
64711;BME280;51139;45.626;6.850;2023-07-29T02:20:52;82199.19;;;17.18;63.28
64711;BME280;51139;45.626;6.850;2023-07-29T02:23:17;82198.19;;;17.37;61.79
64711;BME280;51139;45.626;6.850;2023-07-29T02:25:42;82197.72;;;16.91;63.32
64711;BME280;51139;45.626;6.850;2023-07-29T02:28:08;82199.97;;;16.47;67.03
64711;BME280;51139;45.626;6.850;2023-07-29T02:30:33;82199.97;;;16.47;67.09
64711;BME280;51139;45.626;6.850;2023-07-29T02:32:58;82193.34;;;16.00;68.63
64711;BME280;51139;45.626;6.850;2023-07-29T02:35:26;82195.84;;;15.86;69.78
64711;BME280;51139;45.626;6.850;2023-07-29T02:37:52;82193.47;;;16.26;68.98
64711;BME280;51139;45.626;6.850;2023-07-29T02:40:17;82203.41;;;16.73;65.96
64711;BME280;51139;45.626;6.850;2023-07-29T02:42:42;82205.03;;;16.78;66.30
64711;BME280;51139;45.626;6.850;2023-07-29T02:45:08;82208.78;;;16.97;64.52
64711;BME280;51139;45.626;6.850;2023-07-29T02:47:37;82212.25;;;17.00;64.16
64711;BME280;51139;45.626;6.850;2023-07-29T02:50:02;82212.22;;;17.12;63.25
64711;BME280;51139;45.626;6.850;2023-07-29T02:52:28;82208.63;;;17.07;62.69
64711;BME280;51139;45.626;6.850;2023-07-29T02:54:53;82207.00;;;17.02;62.48
64711;BME280;51139;45.626;6.850;2023-07-29T02:57:20;82203.88;;;17.05;62.87
64711;BME280;51139;45.626;6.850;2023-07-29T02:59:45;82201.69;;;16.78;64.14
64711;BME280;51139;45.626;6.850;2023-07-29T03:02:11;82199.00;;;16.90;63.90
64711;BME280;51139;45.626;6.850;2023-07-29T03:04:36;82203.91;;;16.70;64.81
64711;BME280;51139;45.626;6.850;2023-07-29T03:07:02;82204.69;;;16.84;64.20
64711;BME280;51139;45.626;6.850;2023-07-29T03:09:28;82211.09;;;16.79;64.05
64711;BME280;51139;45.626;6.850;2023-07-29T03:11:53;82208.09;;;16.37;65.24
64711;BME280;51139;45.626;6.850;2023-07-29T03:14:20;82209.03;;;16.66;64.62
64711;BME280;51139;45.626;6.850;2023-07-29T03:16:46;82204.63;;;16.23;65.95
64711;BME280;51139;45.626;6.850;2023-07-29T03:19:12;82208.09;;;16.01;67.79
64711;BME280;51139;45.626;6.850;2023-07-29T03:21:37;82209.97;;;16.23;66.76
64711;BME280;51139;45.626;6.850;2023-07-29T03:24:03;82212.63;;;15.99;68.76
64711;BME280;51139;45.626;6.850;2023-07-29T03:26:28;82210.66;;;16.23;67.83
64711;BME280;51139;45.626;6.850;2023-07-29T03:28:54;82216.94;;;16.52;65.89
64711;BME280;51139;45.626;6.850;2023-07-29T03:31:19;82217.75;;;16.42;66.66
64711;BME280;51139;45.626;6.850;2023-07-29T03:33:45;82216.81;;;16.61;65.38
64711;BME280;51139;45.626;6.850;2023-07-29T03:36:10;82218.34;;;16.41;65.96
64711;BME280;51139;45.626;6.850;2023-07-29T03:38:35;82217.63;;;16.04;67.21
64711;BME280;51139;45.626;6.850;2023-07-29T03:41:05;82214.94;;;15.47;70.69
64711;BME280;51139;45.626;6.850;2023-07-29T03:43:31;82224.66;;;15.42;71.44
64711;BME280;51139;45.626;6.850;2023-07-29T03:45:56;82216.69;;;15.21;72.15
64711;BME280;51139;45.626;6.850;2023-07-29T03:48:22;82216.53;;;15.86;70.09
64711;BME280;51139;45.626;6.850;2023-07-29T03:50:47;82223.91;;;16.09;68.76
64711;BME280;51139;45.626;6.850;2023-07-29T03:53:13;82219.72;;;16.06;68.83
64711;BME280;51139;45.626;6.850;2023-07-29T03:55:38;82226.50;;;15.85;69.61
64711;BME280;51139;45.626;6.850;2023-07-29T03:58:03;82224.41;;;15.84;69.51
64711;BME280;51139;45.626;6.850;2023-07-29T04:00:29;82223.66;;;15.59;70.20
64711;BME280;51139;45.626;6.850;2023-07-29T04:02:54;82219.81;;;15.51;71.04
64711;BME280;51139;45.626;6.850;2023-07-29T04:05:19;82218.50;;;15.06;73.92
64711;BME280;51139;45.626;6.850;2023-07-29T04:07:45;82221.94;;;14.75;76.13
64711;BME280;51139;45.626;6.850;2023-07-29T04:10:11;82224.97;;;15.03;75.12
64711;BME280;51139;45.626;6.850;2023-07-29T04:12:36;82226.19;;;15.12;74.61
64711;BME280;51139;45.626;6.850;2023-07-29T04:15:02;82222.31;;;15.37;73.87
64711;BME280;51139;45.626;6.850;2023-07-29T04:17:27;82225.28;;;15.19;73.95
64711;BME280;51139;45.626;6.850;2023-07-29T04:19:53;82218.19;;;15.12;74.87
64711;BME280;51139;45.626;6.850;2023-07-29T04:22:18;82227.28;;;15.64;72.03
64711;BME280;51139;45.626;6.850;2023-07-29T04:24:44;82225.78;;;15.73;71.78
64711;BME280;51139;45.626;6.850;2023-07-29T04:27:09;82232.50;;;15.96;69.37
64711;BME280;51139;45.626;6.850;2023-07-29T04:29:35;82230.38;;;15.94;69.28
64711;BME280;51139;45.626;6.850;2023-07-29T04:32:02;82229.78;;;15.50;71.68
64711;BME280;51139;45.626;6.850;2023-07-29T04:34:27;82229.25;;;15.30;73.16
64711;BME280;51139;45.626;6.850;2023-07-29T04:36:53;82235.66;;;15.37;72.87
64711;BME280;51139;45.626;6.850;2023-07-29T04:39:18;82235.09;;;15.05;74.58
64711;BME280;51139;45.626;6.850;2023-07-29T04:41:44;82241.78;;;15.27;73.84
64711;BME280;51139;45.626;6.850;2023-07-29T04:44:09;82241.84;;;15.17;74.25
64711;BME280;51139;45.626;6.850;2023-07-29T04:46:36;82239.06;;;14.94;74.90
64711;BME280;51139;45.626;6.850;2023-07-29T04:49:02;82236.84;;;15.45;72.87
64711;BME280;51139;45.626;6.850;2023-07-29T04:51:28;82238.28;;;15.58;72.05
64711;BME280;51139;45.626;6.850;2023-07-29T04:53:53;82245.75;;;15.38;72.88
64711;BME280;51139;45.626;6.850;2023-07-29T04:56:19;82244.47;;;15.61;72.30
64711;BME280;51139;45.626;6.850;2023-07-29T04:58:44;82248.47;;;15.84;70.64
64711;BME280;51139;45.626;6.850;2023-07-29T05:01:10;82246.59;;;15.41;72.27
64711;BME280;51139;45.626;6.850;2023-07-29T05:03:35;82245.50;;;15.34;73.86
64711;BME280;51139;45.626;6.850;2023-07-29T05:06:02;82244.94;;;15.69;72.15
64711;BME280;51139;45.626;6.850;2023-07-29T05:08:28;82237.47;;;15.22;73.86
64711;BME280;51139;45.626;6.850;2023-07-29T05:10:54;82241.97;;;15.20;75.02
64711;BME280;51139;45.626;6.850;2023-07-29T05:13:20;82242.56;;;14.96;76.84
64711;BME280;51139;45.626;6.850;2023-07-29T05:15:47;82242.47;;;15.28;75.61
64711;BME280;51139;45.626;6.850;2023-07-29T05:18:13;82238.78;;;15.33;74.88
64711;BME280;51139;45.626;6.850;2023-07-29T05:20:39;82238.94;;;15.13;75.87
64711;BME280;51139;45.626;6.850;2023-07-29T05:23:04;82244.34;;;15.03;76.74
64711;BME280;51139;45.626;6.850;2023-07-29T05:25:30;82238.44;;;15.05;77.44
64711;BME280;51139;45.626;6.850;2023-07-29T05:27:55;82242.38;;;15.04;77.22
64711;BME280;51139;45.626;6.850;2023-07-29T05:30:22;82239.84;;;14.84;78.00
64711;BME280;51139;45.626;6.850;2023-07-29T05:32:47;82239.38;;;14.88;79.97
64711;BME280;51139;45.626;6.850;2023-07-29T05:35:13;82243.69;;;14.93;79.53
64711;BME280;51139;45.626;6.850;2023-07-29T05:37:40;82237.75;;;15.05;79.15
64711;BME280;51139;45.626;6.850;2023-07-29T05:40:06;82243.94;;;14.97;78.68
64711;BME280;51139;45.626;6.850;2023-07-29T05:42:32;82243.75;;;15.27;76.96
64711;BME280;51139;45.626;6.850;2023-07-29T05:44:58;82245.00;;;15.48;75.80
64711;BME280;51139;45.626;6.850;2023-07-29T05:47:23;82248.94;;;15.46;74.72
64711;BME280;51139;45.626;6.850;2023-07-29T05:49:48;82252.25;;;15.35;76.10
64711;BME280;51139;45.626;6.850;2023-07-29T05:52:14;82250.81;;;15.56;74.99
64711;BME280;51139;45.626;6.850;2023-07-29T05:54:40;82255.19;;;15.17;75.78
64711;BME280;51139;45.626;6.850;2023-07-29T05:57:06;82254.66;;;15.53;74.47
64711;BME280;51139;45.626;6.850;2023-07-29T05:59:31;82255.94;;;15.97;72.43
64711;BME280;51139;45.626;6.850;2023-07-29T06:01:57;82263.66;;;15.81;72.15
64711;BME280;51139;45.626;6.850;2023-07-29T06:04:22;82265.28;;;15.74;72.58
64711;BME280;51139;45.626;6.850;2023-07-29T06:06:48;82263.19;;;15.85;72.73
64711;BME280;51139;45.626;6.850;2023-07-29T06:09:13;82264.91;;;15.68;73.88
64711;BME280;51139;45.626;6.850;2023-07-29T06:11:39;82270.22;;;15.35;75.47
64711;BME280;51139;45.626;6.850;2023-07-29T06:14:04;82265.34;;;15.31;77.20
64711;BME280;51139;45.626;6.850;2023-07-29T06:16:29;82263.09;;;15.49;76.50
64711;BME280;51139;45.626;6.850;2023-07-29T06:18:56;82260.34;;;15.25;76.80
64711;BME280;51139;45.626;6.850;2023-07-29T06:21:22;82260.38;;;15.37;76.16
64711;BME280;51139;45.626;6.850;2023-07-29T06:23:47;82255.94;;;15.97;74.15
64711;BME280;51139;45.626;6.850;2023-07-29T06:26:13;82252.50;;;16.18;70.11
64711;BME280;51139;45.626;6.850;2023-07-29T06:28:38;82259.44;;;16.00;71.44
64711;BME280;51139;45.626;6.850;2023-07-29T06:31:03;82252.38;;;16.76;69.29
64711;BME280;51139;45.626;6.850;2023-07-29T06:33:29;82242.59;;;16.92;68.13
64711;BME280;51139;45.626;6.850;2023-07-29T06:35:54;82241.97;;;17.30;65.49
64711;BME280;51139;45.626;6.850;2023-07-29T06:38:19;82245.06;;;16.65;66.42
64711;BME280;51139;45.626;6.850;2023-07-29T06:40:49;82248.31;;;16.63;68.06
64711;BME280;51139;45.626;6.850;2023-07-29T06:43:15;82237.84;;;16.91;69.08
64711;BME280;51139;45.626;6.850;2023-07-29T06:45:40;82238.06;;;17.07;68.68
64711;BME280;51139;45.626;6.850;2023-07-29T06:48:05;82241.34;;;17.43;67.00
64711;BME280;51139;45.626;6.850;2023-07-29T06:50:31;82244.69;;;17.56;65.77
64711;BME280;51139;45.626;6.850;2023-07-29T06:52:56;82241.13;;;18.43;61.68
64711;BME280;51139;45.626;6.850;2023-07-29T06:55:21;82233.28;;;19.01;59.53
64711;BME280;51139;45.626;6.850;2023-07-29T06:57:47;82235.53;;;19.20;57.68
64711;BME280;51139;45.626;6.850;2023-07-29T07:00:13;82223.28;;;19.45;57.02
64711;BME280;51139;45.626;6.850;2023-07-29T07:02:38;82229.97;;;19.74;51.90
64711;BME280;51139;45.626;6.850;2023-07-29T07:05:04;82227.84;;;19.87;49.39
64711;BME280;51139;45.626;6.850;2023-07-29T07:07:29;82231.69;;;20.11;50.70
64711;BME280;51139;45.626;6.850;2023-07-29T07:09:55;82236.66;;;20.33;53.07
64711;BME280;51139;45.626;6.850;2023-07-29T07:12:20;82242.56;;;20.46;51.25
64711;BME280;51139;45.626;6.850;2023-07-29T07:14:46;82240.16;;;20.52;50.96
64711;BME280;51139;45.626;6.850;2023-07-29T07:17:11;82237.56;;;20.54;49.97
64711;BME280;51139;45.626;6.850;2023-07-29T07:19:36;82236.06;;;20.35;50.63
64711;BME280;51139;45.626;6.850;2023-07-29T07:22:02;82233.94;;;21.11;48.06
64711;BME280;51139;45.626;6.850;2023-07-29T07:24:28;82230.91;;;21.19;48.24
64711;BME280;51139;45.626;6.850;2023-07-29T07:26:53;82227.47;;;21.35;44.48
64711;BME280;51139;45.626;6.850;2023-07-29T07:29:18;82234.66;;;20.80;49.74
64711;BME280;51139;45.626;6.850;2023-07-29T07:31:50;82230.25;;;19.80;53.07
64711;BME280;51139;45.626;6.850;2023-07-29T07:34:16;82233.66;;;20.41;53.00
64711;BME280;51139;45.626;6.850;2023-07-29T07:36:41;82237.19;;;20.46;50.48
64711;BME280;51139;45.626;6.850;2023-07-29T07:39:07;82227.31;;;21.31;50.19
64711;BME280;51139;45.626;6.850;2023-07-29T07:41:32;82226.63;;;21.30;43.16
64711;BME280;51139;45.626;6.850;2023-07-29T07:43:57;82239.69;;;21.04;42.82
64711;BME280;51139;45.626;6.850;2023-07-29T07:46:23;82231.88;;;21.94;42.52
64711;BME280;51139;45.626;6.850;2023-07-29T07:48:48;82240.97;;;22.39;41.19
64711;BME280;51139;45.626;6.850;2023-07-29T07:51:13;82243.59;;;22.37;41.12
64711;BME280;51139;45.626;6.850;2023-07-29T07:53:39;82243.03;;;22.05;39.72
64711;BME280;51139;45.626;6.850;2023-07-29T07:56:06;82232.56;;;21.95;39.39
64711;BME280;51139;45.626;6.850;2023-07-29T07:58:31;82227.78;;;21.75;40.15
64711;BME280;51139;45.626;6.850;2023-07-29T08:01:04;82227.06;;;21.58;44.06
64711;BME280;51139;45.626;6.850;2023-07-29T08:03:29;82226.00;;;21.32;40.01
64711;BME280;51139;45.626;6.850;2023-07-29T08:05:55;82228.16;;;22.04;40.38
64711;BME280;51139;45.626;6.850;2023-07-29T08:08:20;82225.22;;;21.79;39.22
64711;BME280;51139;45.626;6.850;2023-07-29T08:10:45;82221.63;;;22.09;39.47
64711;BME280;51139;45.626;6.850;2023-07-29T08:13:11;82222.47;;;21.77;39.65
64711;BME280;51139;45.626;6.850;2023-07-29T08:15:36;82219.91;;;21.47;38.50
64711;BME280;51139;45.626;6.850;2023-07-29T08:18:01;82212.59;;;21.84;41.73
64711;BME280;51139;45.626;6.850;2023-07-29T08:20:27;82212.56;;;22.18;41.42
64711;BME280;51139;45.626;6.850;2023-07-29T08:22:52;82209.06;;;21.79;44.23
64711;BME280;51139;45.626;6.850;2023-07-29T08:25:17;82208.13;;;21.56;41.82
64711;BME280;51139;45.626;6.850;2023-07-29T08:27:43;82208.84;;;21.23;42.90
64711;BME280;51139;45.626;6.850;2023-07-29T08:30:08;82213.47;;;21.89;39.05
64711;BME280;51139;45.626;6.850;2023-07-29T08:32:34;82217.03;;;22.48;37.84
64711;BME280;51139;45.626;6.850;2023-07-29T08:34:59;82209.41;;;22.60;34.05
64711;BME280;51139;45.626;6.850;2023-07-29T08:37:24;82218.84;;;22.07;37.36
64711;BME280;51139;45.626;6.850;2023-07-29T08:39:52;82213.44;;;21.70;43.02
64711;BME280;51139;45.626;6.850;2023-07-29T08:42:19;82214.16;;;21.55;42.40
64711;BME280;51139;45.626;6.850;2023-07-29T08:44:45;82212.22;;;21.57;39.96
64711;BME280;51139;45.626;6.850;2023-07-29T08:47:12;82202.81;;;21.24;38.69
64711;BME280;51139;45.626;6.850;2023-07-29T08:49:39;82204.88;;;20.92;43.48
64711;BME280;51139;45.626;6.850;2023-07-29T08:52:06;82202.00;;;21.04;43.38
64711;BME280;51139;45.626;6.850;2023-07-29T08:54:32;82202.94;;;21.10;38.54
64711;BME280;51139;45.626;6.850;2023-07-29T08:56:57;82207.63;;;21.26;37.44
64711;BME280;51139;45.626;6.850;2023-07-29T08:59:23;82208.88;;;21.41;39.03
64711;BME280;51139;45.626;6.850;2023-07-29T09:01:49;82204.72;;;21.38;38.60
64711;BME280;51139;45.626;6.850;2023-07-29T09:04:14;82209.34;;;21.53;37.77
64711;BME280;51139;45.626;6.850;2023-07-29T09:06:43;82207.69;;;21.28;37.49
64711;BME280;51139;45.626;6.850;2023-07-29T09:09:08;82212.38;;;21.27;38.60
64711;BME280;51139;45.626;6.850;2023-07-29T09:11:35;82215.13;;;20.79;39.36
64711;BME280;51139;45.626;6.850;2023-07-29T09:14:00;82210.84;;;20.74;38.86
64711;BME280;51139;45.626;6.850;2023-07-29T09:16:25;82215.31;;;21.34;38.58
64711;BME280;51139;45.626;6.850;2023-07-29T09:18:51;82214.00;;;21.35;37.81
64711;BME280;51139;45.626;6.850;2023-07-29T09:21:20;82213.00;;;21.26;38.79
64711;BME280;51139;45.626;6.850;2023-07-29T09:23:47;82216.75;;;21.53;39.92
64711;BME280;51139;45.626;6.850;2023-07-29T09:26:13;82225.16;;;21.77;39.80
64711;BME280;51139;45.626;6.850;2023-07-29T09:28:40;82229.91;;;21.79;40.07
64711;BME280;51139;45.626;6.850;2023-07-29T09:31:05;82230.06;;;21.83;39.39
64711;BME280;51139;45.626;6.850;2023-07-29T09:33:35;82235.88;;;21.59;40.24
64711;BME280;51139;45.626;6.850;2023-07-29T09:36:08;82232.31;;;21.54;40.50
64711;BME280;51139;45.626;6.850;2023-07-29T09:38:34;82227.47;;;21.35;41.27
64711;BME280;51139;45.626;6.850;2023-07-29T09:41:01;82236.06;;;21.63;41.99
64711;BME280;51139;45.626;6.850;2023-07-29T09:43:31;82223.00;;;21.57;40.97
64711;BME280;51139;45.626;6.850;2023-07-29T09:46:04;82231.66;;;21.38;42.13
64711;BME280;51139;45.626;6.850;2023-07-29T09:48:36;82223.16;;;21.11;42.88
64711;BME280;51139;45.626;6.850;2023-07-29T09:51:11;82231.88;;;21.10;44.04
64711;BME280;51139;45.626;6.850;2023-07-29T09:53:45;82227.66;;;21.39;44.03
64711;BME280;51139;45.626;6.850;2023-07-29T09:56:12;82225.53;;;21.53;41.52
64711;BME280;51139;45.626;6.850;2023-07-29T09:58:37;82228.03;;;21.15;41.91
64711;BME280;51139;45.626;6.850;2023-07-29T10:01:06;82229.19;;;21.10;43.08
64711;BME280;51139;45.626;6.850;2023-07-29T10:03:33;82231.84;;;21.26;42.96
64711;BME280;51139;45.626;6.850;2023-07-29T10:06:02;82235.47;;;21.33;43.00
64711;BME280;51139;45.626;6.850;2023-07-29T10:08:30;82231.59;;;20.88;42.64
64711;BME280;51139;45.626;6.850;2023-07-29T10:10:59;82241.44;;;20.81;42.78
64711;BME280;51139;45.626;6.850;2023-07-29T10:13:25;82237.22;;;20.62;43.42
64711;BME280;51139;45.626;6.850;2023-07-29T10:15:52;82238.25;;;20.54;43.90
64711;BME280;51139;45.626;6.850;2023-07-29T10:18:18;82244.72;;;20.79;43.22
64711;BME280;51139;45.626;6.850;2023-07-29T10:20:44;82239.59;;;21.02;43.80
64711;BME280;51139;45.626;6.850;2023-07-29T10:23:10;82243.16;;;21.06;43.44
64711;BME280;51139;45.626;6.850;2023-07-29T10:25:43;82240.03;;;21.12;43.88
64711;BME280;51139;45.626;6.850;2023-07-29T10:28:12;82232.34;;;20.58;43.80
64711;BME280;51139;45.626;6.850;2023-07-29T10:30:41;82239.91;;;20.62;43.39
64711;BME280;51139;45.626;6.850;2023-07-29T10:33:07;82247.47;;;20.65;44.21
64711;BME280;51139;45.626;6.850;2023-07-29T10:35:33;82241.72;;;20.41;43.85
64711;BME280;51139;45.626;6.850;2023-07-29T10:37:59;82244.59;;;20.45;43.30
64711;BME280;51139;45.626;6.850;2023-07-29T10:40:25;82236.78;;;20.67;43.70
64711;BME280;51139;45.626;6.850;2023-07-29T10:43:09;82233.34;;;20.19;43.49
64711;BME280;51139;45.626;6.850;2023-07-29T10:45:41;82237.25;;;20.78;42.85
64711;BME280;51139;45.626;6.850;2023-07-29T10:48:11;82240.28;;;21.34;43.57
64711;BME280;51139;45.626;6.850;2023-07-29T10:50:36;82242.41;;;20.41;44.05
64711;BME280;51139;45.626;6.850;2023-07-29T10:53:02;82236.56;;;20.31;43.76
64711;BME280;51139;45.626;6.850;2023-07-29T10:55:35;82232.88;;;20.08;44.09
64711;BME280;51139;45.626;6.850;2023-07-29T10:58:13;82234.19;;;20.53;43.22
64711;BME280;51139;45.626;6.850;2023-07-29T11:00:43;82228.34;;;20.43;44.43
64711;BME280;51139;45.626;6.850;2023-07-29T11:03:11;82236.22;;;20.85;43.60
64711;BME280;51139;45.626;6.850;2023-07-29T11:05:47;82232.56;;;20.78;43.05
64711;BME280;51139;45.626;6.850;2023-07-29T11:13:26;82232.47;;;21.08;46.47
64711;BME280;51139;45.626;6.850;2023-07-29T11:15:53;82228.31;;;20.89;45.47
64711;BME280;51139;45.626;6.850;2023-07-29T11:18:20;82232.38;;;20.74;45.16
64711;BME280;51139;45.626;6.850;2023-07-29T11:20:46;82231.41;;;20.05;45.25
64711;BME280;51139;45.626;6.850;2023-07-29T11:23:13;82224.28;;;20.12;45.03
64711;BME280;51139;45.626;6.850;2023-07-29T11:25:38;82221.69;;;20.14;46.73
64711;BME280;51139;45.626;6.850;2023-07-29T11:28:04;82230.94;;;20.25;47.06
64711;BME280;51139;45.626;6.850;2023-07-29T11:30:29;82221.28;;;20.82;44.97
64711;BME280;51139;45.626;6.850;2023-07-29T11:32:57;82219.59;;;20.75;45.17
64711;BME280;51139;45.626;6.850;2023-07-29T11:35:23;82210.22;;;20.76;43.90
64711;BME280;51139;45.626;6.850;2023-07-29T11:37:50;82223.31;;;20.35;45.63
64711;BME280;51139;45.626;6.850;2023-07-29T11:40:20;82221.59;;;19.96;46.47
64711;BME280;51139;45.626;6.850;2023-07-29T11:42:47;82213.38;;;20.08;46.02
64711;BME280;51139;45.626;6.850;2023-07-29T11:45:14;82213.53;;;20.12;47.65
64711;BME280;51139;45.626;6.850;2023-07-29T11:47:39;82210.22;;;19.97;47.16
64711;BME280;51139;45.626;6.850;2023-07-29T11:50:06;82207.34;;;19.79;46.30
64711;BME280;51139;45.626;6.850;2023-07-29T11:52:36;82209.03;;;19.87;47.95
64711;BME280;51139;45.626;6.850;2023-07-29T11:55:03;82207.53;;;20.44;48.08
64711;BME280;51139;45.626;6.850;2023-07-29T11:57:30;82212.59;;;20.99;45.93
64711;BME280;51139;45.626;6.850;2023-07-29T11:59:56;82208.78;;;21.05;44.68
64711;BME280;51139;45.626;6.850;2023-07-29T12:02:22;82204.59;;;21.02;46.14
64711;BME280;51139;45.626;6.850;2023-07-29T12:04:48;82208.06;;;21.04;47.03
64711;BME280;51139;45.626;6.850;2023-07-29T12:07:16;82204.34;;;20.95;48.96
64711;BME280;51139;45.626;6.850;2023-07-29T12:09:42;82194.16;;;21.26;46.43
64711;BME280;51139;45.626;6.850;2023-07-29T12:12:08;82193.50;;;21.43;44.42
64711;BME280;51139;45.626;6.850;2023-07-29T12:14:34;82194.25;;;21.46;42.15
64711;BME280;51139;45.626;6.850;2023-07-29T12:17:05;82182.50;;;21.21;41.26
64711;BME280;51139;45.626;6.850;2023-07-29T12:19:37;82176.00;;;21.10;43.47
64711;BME280;51139;45.626;6.850;2023-07-29T12:22:04;82182.13;;;20.63;43.93
64711;BME280;51139;45.626;6.850;2023-07-29T12:24:36;82180.81;;;20.64;52.58
64711;BME280;51139;45.626;6.850;2023-07-29T12:27:01;82179.06;;;20.38;52.83
64711;BME280;51139;45.626;6.850;2023-07-29T12:29:27;82170.75;;;20.48;51.68
64711;BME280;51139;45.626;6.850;2023-07-29T12:32:03;82172.81;;;20.50;49.35
64711;BME280;51139;45.626;6.850;2023-07-29T12:34:30;82175.94;;;20.28;52.32
64711;BME280;51139;45.626;6.850;2023-07-29T12:36:57;82175.22;;;20.11;50.11
64711;BME280;51139;45.626;6.850;2023-07-29T12:39:27;82178.53;;;20.26;50.72
64711;BME280;51139;45.626;6.850;2023-07-29T12:41:54;82179.91;;;20.27;47.93
64711;BME280;51139;45.626;6.850;2023-07-29T12:44:22;82182.00;;;20.29;50.52
64711;BME280;51139;45.626;6.850;2023-07-29T12:46:47;82183.06;;;20.69;50.84
64711;BME280;51139;45.626;6.850;2023-07-29T12:49:13;82179.69;;;20.69;45.84
64711;BME280;51139;45.626;6.850;2023-07-29T12:51:38;82175.00;;;20.85;45.65
64711;BME280;51139;45.626;6.850;2023-07-29T12:54:04;82169.69;;;20.55;46.07
64711;BME280;51139;45.626;6.850;2023-07-29T12:56:30;82179.50;;;20.33;51.79
64711;BME280;51139;45.626;6.850;2023-07-29T12:58:56;82184.38;;;19.90;52.76
64711;BME280;51139;45.626;6.850;2023-07-29T13:01:23;82186.19;;;20.48;52.02
64711;BME280;51139;45.626;6.850;2023-07-29T13:03:49;82187.56;;;20.49;50.13